createdAt,value
2018-07-26T00:01:44.381Z,12.27
2018-07-26T00:04:12.853Z,9.00
2018-07-26T00:06:41.227Z,8.57
2018-07-26T00:09:10.847Z,8.97
2018-07-26T00:11:39.408Z,8.50
2018-07-26T00:14:08.220Z,8.53
2018-07-26T00:16:36.598Z,8.83
2018-07-26T00:19:05.026Z,7.87
2018-07-26T00:21:33.440Z,7.93
2018-07-26T00:24:02.360Z,9.07
2018-07-26T00:26:30.803Z,10.20
2018-07-26T00:28:59.140Z,8.50
2018-07-26T00:31:27.590Z,9.20
2018-07-26T00:33:56.312Z,10.23
2018-07-26T00:36:24.978Z,10.73
2018-07-26T00:38:53.406Z,9.70
2018-07-26T00:41:21.858Z,11.87
2018-07-26T00:43:50.201Z,9.77
2018-07-26T00:46:18.577Z,10.83
2018-07-26T00:48:47.016Z,8.87
2018-07-26T00:51:15.624Z,9.27
2018-07-26T00:53:43.986Z,10.53
2018-07-26T00:56:12.380Z,9.73
2018-07-26T00:58:40.810Z,10.60
2018-07-26T01:01:09.223Z,9.97
2018-07-26T01:03:37.625Z,9.70
2018-07-26T01:06:06.859Z,9.43
2018-07-26T01:08:35.185Z,9.17
2018-07-26T01:11:03.876Z,13.53
2018-07-26T01:13:32.218Z,8.90
2018-07-26T01:16:00.646Z,9.13
2018-07-26T01:18:29.081Z,9.57
2018-07-26T01:20:58.114Z,9.00
2018-07-26T01:24:56.388Z,10.10
2018-07-26T01:27:25.140Z,11.57
2018-07-26T01:29:53.501Z,11.20
2018-07-26T01:32:21.912Z,11.00
2018-07-26T01:34:50.381Z,9.53
2018-07-26T01:37:18.861Z,9.83
2018-07-26T01:39:47.319Z,11.23
2018-07-26T01:42:15.693Z,9.70
2018-07-26T01:44:44.320Z,13.13
2018-07-26T01:47:12.685Z,11.00
2018-07-26T01:49:41.060Z,8.13
2018-07-26T01:52:09.441Z,8.17
2018-07-26T01:54:37.825Z,10.87
2018-07-26T01:57:06.177Z,8.70
2018-07-26T01:59:34.283Z,9.00
2018-07-26T02:02:02.687Z,8.33
2018-07-26T02:04:31.105Z,10.63
2018-07-26T02:06:59.493Z,7.03
2018-07-26T02:09:27.844Z,7.37
2018-07-26T02:11:56.464Z,7.30
2018-07-26T02:14:30.326Z,8.37
2018-07-26T02:16:58.650Z,6.70
2018-07-26T02:19:27.007Z,7.83
2018-07-26T02:21:55.499Z,11.40
2018-07-26T02:24:23.902Z,9.93
2018-07-26T02:26:52.355Z,8.57
2018-07-26T02:29:20.732Z,8.93
2018-07-26T02:31:49.458Z,8.30
2018-07-26T02:34:19.066Z,11.27
2018-07-26T02:36:48.155Z,9.20
2018-07-26T02:39:16.601Z,9.90
2018-07-26T02:41:45.282Z,7.70
2018-07-26T02:44:13.689Z,7.53
2018-07-26T02:46:42.006Z,7.47
2018-07-26T02:49:10.381Z,8.43
2018-07-26T02:51:38.802Z,8.33
2018-07-26T02:54:07.170Z,9.80
2018-07-26T02:56:35.740Z,7.10
2018-07-26T02:59:04.376Z,6.57
2018-07-26T03:01:32.779Z,9.40
2018-07-26T03:04:01.098Z,7.03
2018-07-26T03:06:29.503Z,6.97
2018-07-26T03:08:57.967Z,10.27
2018-07-26T03:11:26.450Z,7.70
2018-07-26T03:13:54.868Z,7.30
2018-07-26T03:16:23.252Z,12.80
2018-07-26T03:18:51.698Z,6.73
2018-07-26T03:21:20.018Z,8.63
2018-07-26T03:23:48.342Z,8.20
2018-07-26T03:26:16.693Z,9.80
2018-07-26T03:28:45.161Z,10.47
2018-07-26T03:31:13.518Z,8.53
2018-07-26T03:33:41.886Z,8.30
2018-07-26T03:36:10.252Z,9.63
2018-07-26T03:38:38.569Z,7.93
2018-07-26T03:41:06.989Z,7.70
2018-07-26T03:43:35.407Z,10.90
2018-07-26T03:46:03.864Z,13.50
2018-07-26T03:48:32.254Z,8.33
2018-07-26T03:51:00.653Z,10.00
2018-07-26T03:53:29.060Z,8.30
2018-07-26T03:55:57.500Z,8.23
2018-07-26T03:58:25.899Z,7.97
2018-07-26T04:00:54.316Z,10.07
2018-07-26T04:03:22.777Z,10.80
2018-07-26T04:05:51.189Z,8.53
2018-07-26T04:08:19.548Z,8.60
2018-07-26T04:10:47.931Z,9.37
2018-07-26T04:13:16.324Z,13.17
2018-07-26T04:15:44.676Z,10.50
2018-07-26T04:18:13.039Z,10.83
2018-07-26T04:20:41.387Z,10.37
2018-07-26T04:23:09.779Z,10.43
2018-07-26T04:25:38.380Z,9.40
2018-07-26T04:28:06.809Z,11.03
2018-07-26T04:30:35.700Z,9.67
2018-07-26T04:33:04.007Z,10.23
2018-07-26T04:35:32.404Z,12.67
2018-07-26T04:38:00.745Z,11.30
2018-07-26T04:40:29.175Z,11.60
2018-07-26T04:42:57.567Z,11.87
2018-07-26T04:45:25.922Z,10.17
2018-07-26T04:47:54.327Z,12.23
2018-07-26T04:50:23.325Z,12.10
2018-07-26T04:52:52.600Z,10.17
2018-07-26T04:55:20.946Z,10.10
2018-07-26T04:57:49.304Z,10.17
2018-07-26T05:00:17.708Z,10.70
2018-07-26T05:02:46.157Z,10.50
2018-07-26T05:05:14.583Z,11.03
2018-07-26T05:07:42.945Z,11.00
2018-07-26T05:10:11.378Z,10.70
2018-07-26T05:12:39.718Z,14.53
2018-07-26T05:15:08.424Z,11.23
2018-07-26T05:17:36.791Z,13.30
2018-07-26T05:20:06.240Z,12.73
2018-07-26T05:22:34.618Z,11.33
2018-07-26T05:25:03.415Z,12.30
2018-07-26T05:27:32.015Z,11.50
2018-07-26T05:30:00.745Z,13.10
2018-07-26T05:32:29.441Z,13.37
2018-07-26T05:34:57.875Z,12.27
2018-07-26T05:37:26.233Z,11.27
2018-07-26T05:39:54.584Z,10.93
2018-07-26T05:42:23.393Z,11.93
2018-07-26T05:44:51.727Z,11.43
2018-07-26T05:47:20.159Z,14.97
2018-07-26T05:49:48.839Z,12.80
2018-07-26T05:52:17.253Z,11.83
2018-07-26T05:54:45.624Z,14.20
2018-07-26T05:57:13.991Z,13.20
2018-07-26T05:59:42.801Z,12.80
2018-07-26T06:02:11.747Z,13.27
2018-07-26T06:04:40.247Z,13.60
2018-07-26T06:07:08.665Z,16.07
2018-07-26T06:09:37.093Z,13.00
2018-07-26T06:12:05.392Z,13.10
2018-07-26T06:14:33.772Z,15.00
2018-07-26T06:17:01.855Z,17.17
2018-07-26T06:19:30.265Z,13.87
2018-07-26T06:21:58.663Z,16.33
2018-07-26T06:24:27.027Z,14.87
2018-07-26T06:26:55.393Z,15.77
2018-07-26T06:29:23.888Z,13.60
2018-07-26T06:31:52.381Z,14.50
2018-07-26T06:34:21.073Z,13.67
2018-07-26T06:36:49.413Z,13.40
2018-07-26T06:39:18.173Z,12.97
2018-07-26T06:41:46.549Z,14.10
2018-07-26T06:44:15.471Z,12.00
2018-07-26T06:46:43.887Z,12.77
2018-07-26T06:49:12.239Z,13.83
2018-07-26T06:51:40.596Z,14.73
2018-07-26T06:54:09.038Z,11.77
2018-07-26T06:56:37.444Z,11.57
2018-07-26T06:59:06.484Z,12.80
2018-07-26T07:01:34.948Z,13.40
2018-07-26T07:04:03.395Z,13.30
2018-07-26T07:06:31.811Z,12.73
2018-07-26T07:09:00.501Z,13.17
2018-07-26T07:11:28.815Z,13.93
2018-07-26T07:13:57.821Z,11.70
2018-07-26T07:16:26.193Z,13.37
2018-07-26T07:18:54.607Z,15.00
2018-07-26T07:21:22.968Z,12.77
2018-07-26T07:23:51.403Z,13.13
2018-07-26T07:26:19.801Z,15.27
2018-07-26T07:28:48.151Z,13.27
2018-07-26T07:31:16.642Z,14.70
2018-07-26T07:33:45.013Z,13.13
2018-07-26T07:36:13.356Z,13.43
2018-07-26T07:38:41.958Z,13.67
2018-07-26T07:41:10.404Z,13.47
2018-07-26T07:43:38.839Z,13.00
2018-07-26T07:46:07.581Z,11.97
2018-07-26T07:48:36.509Z,14.90
2018-07-26T07:51:05.164Z,13.10
2018-07-26T07:53:33.599Z,15.27
2018-07-26T07:56:02.260Z,13.70
2018-07-26T07:58:30.928Z,12.37
2018-07-26T08:00:59.326Z,18.33
2018-07-26T08:03:27.781Z,13.47
2018-07-26T08:05:56.149Z,16.33
2018-07-26T08:08:24.485Z,15.57
2018-07-26T08:10:52.849Z,14.03
2018-07-26T08:13:21.183Z,17.03
2018-07-26T08:15:49.555Z,12.40
2018-07-26T08:18:17.982Z,14.43
2018-07-26T08:20:46.450Z,16.70
2018-07-26T08:23:14.869Z,14.97
2018-07-26T08:25:43.243Z,15.57
2018-07-26T08:28:11.654Z,14.23
2018-07-26T08:30:40.043Z,16.23
2018-07-26T08:33:08.377Z,13.87
2018-07-26T08:35:36.776Z,14.90
2018-07-26T08:38:05.201Z,15.40
2018-07-26T08:40:33.631Z,18.70
2018-07-26T08:43:01.989Z,18.80
2018-07-26T08:45:30.398Z,18.43
2018-07-26T08:47:58.767Z,16.57
2018-07-26T08:50:27.102Z,11.47
2018-07-26T08:52:56.198Z,16.80
2018-07-26T08:55:24.576Z,15.60
2018-07-26T08:57:52.973Z,13.23
2018-07-26T09:00:21.361Z,11.70
2018-07-26T09:04:18.936Z,14.33
2018-07-26T09:06:47.308Z,13.47
2018-07-26T09:09:15.632Z,14.07
2018-07-26T09:11:43.978Z,15.77
2018-07-26T09:14:12.333Z,12.63
2018-07-26T09:16:40.748Z,16.67
2018-07-26T09:19:09.075Z,10.53
2018-07-26T09:21:37.424Z,8.60
2018-07-26T09:24:06.100Z,10.37
2018-07-26T09:26:34.758Z,10.60
2018-07-26T09:29:03.176Z,8.40
2018-07-26T09:31:31.571Z,10.60
2018-07-26T09:33:59.956Z,8.40
2018-07-26T09:36:29.266Z,8.50
2018-07-26T09:38:57.940Z,7.87
2018-07-26T09:41:26.616Z,7.20
2018-07-26T09:43:54.965Z,7.80
2018-07-26T09:46:23.699Z,9.07
2018-07-26T09:48:52.018Z,5.93
2018-07-26T09:51:20.370Z,7.90
2018-07-26T09:53:48.757Z,9.57
2018-07-26T09:56:17.314Z,6.80
2018-07-26T09:58:45.758Z,6.33
2018-07-26T10:01:19.571Z,10.50
2018-07-26T10:03:48.685Z,10.97
2018-07-26T10:06:17.051Z,8.10
2018-07-26T10:08:45.423Z,9.23
2018-07-26T10:11:13.824Z,7.83
2018-07-26T10:13:42.297Z,9.33
2018-07-26T10:16:10.734Z,5.83
2018-07-26T10:18:39.121Z,6.87
2018-07-26T10:21:07.555Z,7.03
2018-07-26T10:23:35.672Z,7.23
2018-07-26T10:26:04.287Z,8.17
2018-07-26T10:28:32.667Z,8.53
2018-07-26T10:31:01.033Z,8.17
2018-07-26T10:33:29.464Z,8.60
2018-07-26T10:35:57.862Z,11.20
2018-07-26T10:38:26.209Z,6.10
2018-07-26T10:40:54.595Z,6.57
2018-07-26T10:43:22.954Z,6.77
2018-07-26T10:45:51.936Z,4.47
2018-07-26T10:48:20.394Z,8.67
2018-07-26T10:50:48.760Z,5.30
2018-07-26T10:53:17.202Z,4.60
2018-07-26T10:55:45.629Z,5.47
2018-07-26T10:58:14.032Z,7.83
2018-07-26T11:00:42.407Z,4.50
2018-07-26T11:03:10.794Z,5.73
2018-07-26T11:05:39.185Z,4.53
2018-07-26T11:08:07.585Z,5.40
2018-07-26T11:10:36.000Z,6.17
2018-07-26T11:13:04.404Z,6.10
2018-07-26T11:15:36.556Z,6.13
2018-07-26T11:18:05.117Z,5.40
2018-07-26T11:20:33.448Z,6.23
2018-07-26T11:23:02.136Z,7.07
2018-07-26T11:25:30.539Z,5.60
2018-07-26T11:27:58.865Z,4.80
2018-07-26T11:30:27.205Z,5.80
2018-07-26T11:32:55.552Z,4.50
2018-07-26T11:35:23.988Z,5.17
2018-07-26T11:37:52.432Z,6.93
2018-07-26T11:40:20.765Z,5.73
2018-07-26T11:42:49.485Z,6.13
2018-07-26T11:45:17.955Z,9.17
2018-07-26T11:47:46.275Z,6.57
2018-07-26T11:50:15.189Z,5.33
2018-07-26T11:52:43.575Z,6.37
2018-07-26T11:55:11.978Z,4.80
2018-07-26T11:57:40.635Z,4.75
2018-07-26T12:00:09.520Z,4.40
2018-07-26T12:02:37.921Z,6.78
2018-07-26T12:05:06.367Z,6.10
2018-07-26T12:07:34.905Z,4.30
2018-07-26T12:10:03.382Z,5.80
2018-07-26T12:12:31.754Z,6.47
2018-07-26T12:15:00.572Z,5.10
2018-07-26T12:17:28.971Z,6.55
2018-07-26T12:19:57.842Z,5.85
2018-07-26T12:22:26.353Z,5.58
2018-07-26T12:24:54.831Z,7.43
2018-07-26T12:27:23.512Z,6.80
2018-07-26T12:29:51.919Z,7.57
2018-07-26T12:32:20.316Z,8.83
2018-07-26T12:34:48.688Z,5.93
2018-07-26T12:37:17.075Z,6.97
2018-07-26T12:39:45.387Z,7.93
2018-07-26T12:42:13.782Z,7.33
2018-07-26T12:44:42.119Z,8.43
2018-07-26T12:47:11.077Z,8.60
2018-07-26T12:49:39.450Z,6.67
2018-07-26T12:52:07.880Z,5.73
2018-07-26T12:54:36.196Z,6.70
2018-07-26T12:57:04.290Z,7.87
2018-07-26T12:59:32.665Z,6.83
2018-07-26T13:02:01.362Z,7.47
2018-07-26T13:04:29.733Z,7.30
2018-07-26T13:06:58.564Z,6.80
2018-07-26T13:09:26.944Z,5.78
2018-07-26T13:11:55.320Z,6.03
2018-07-26T13:14:23.974Z,5.37
2018-07-26T13:16:52.317Z,7.85
2018-07-26T13:19:20.795Z,9.90
2018-07-26T13:21:49.246Z,5.90
2018-07-26T13:24:17.637Z,8.18
2018-07-26T13:26:45.976Z,5.67
2018-07-26T13:29:14.699Z,9.93
2018-07-26T13:31:43.075Z,6.13
2018-07-26T13:34:11.490Z,5.37
2018-07-26T13:36:39.888Z,6.33
2018-07-26T13:39:10.565Z,5.60
2018-07-26T13:41:38.953Z,12.73
2018-07-26T13:44:07.712Z,6.20
2018-07-26T13:46:36.933Z,10.25
2018-07-26T13:49:05.349Z,6.47
2018-07-26T13:51:33.722Z,6.78
2018-07-26T13:54:02.198Z,6.03
2018-07-26T13:56:30.865Z,8.20
2018-07-26T13:58:59.523Z,5.63
2018-07-26T14:01:27.886Z,5.45
2018-07-26T14:03:56.354Z,6.85
2018-07-26T14:06:24.753Z,7.03
2018-07-26T14:08:53.137Z,6.42
2018-07-26T14:11:21.502Z,6.03
2018-07-26T14:13:49.892Z,7.67
2018-07-26T14:16:18.265Z,10.10
2018-07-26T14:18:46.697Z,5.97
2018-07-26T14:21:15.111Z,6.35
2018-07-26T14:23:43.514Z,6.37
2018-07-26T14:26:12.861Z,6.10
2018-07-26T14:28:41.648Z,7.58
2018-07-26T14:31:10.558Z,6.67
2018-07-26T14:33:38.899Z,7.37
2018-07-26T14:36:07.224Z,9.60
2018-07-26T14:38:35.644Z,6.27
2018-07-26T14:41:04.085Z,8.43
2018-07-26T14:43:32.513Z,6.90
2018-07-26T14:46:00.964Z,8.10
2018-07-26T14:48:29.398Z,9.23
2018-07-26T14:50:57.783Z,6.72
2018-07-26T14:53:26.128Z,6.25
2018-07-26T14:55:54.606Z,7.28
2018-07-26T14:58:23.359Z,7.12
2018-07-26T15:00:51.793Z,6.93
2018-07-26T15:03:20.246Z,7.07
2018-07-26T15:05:48.569Z,6.50
2018-07-26T15:08:16.962Z,6.80
2018-07-26T15:10:45.317Z,9.67
2018-07-26T15:13:13.686Z,6.73
2018-07-26T15:15:42.354Z,6.60
2018-07-26T15:18:10.688Z,6.57
2018-07-26T15:20:39.127Z,7.35
2018-07-26T15:23:07.593Z,10.50
2018-07-26T15:25:36.093Z,6.85
2018-07-26T15:28:04.928Z,6.75
2018-07-26T15:30:33.404Z,7.00
2018-07-26T15:33:01.879Z,6.05
2018-07-26T15:35:30.542Z,6.10
2018-07-26T15:37:58.968Z,6.50
2018-07-26T15:40:27.452Z,6.87
2018-07-26T15:42:55.876Z,6.70
2018-07-26T15:45:24.323Z,6.70
2018-07-26T15:47:52.388Z,8.13
2018-07-26T15:50:20.831Z,6.40
2018-07-26T15:52:49.236Z,6.63
2018-07-26T15:55:17.593Z,6.40
2018-07-26T15:57:45.936Z,7.57
2018-07-26T16:00:14.565Z,10.40
2018-07-26T16:02:42.990Z,7.10
2018-07-26T16:05:11.502Z,8.50
2018-07-26T16:07:39.947Z,7.43
2018-07-26T16:10:09.185Z,7.77
2018-07-26T16:12:37.894Z,9.65
2018-07-26T16:15:08.423Z,6.50
2018-07-26T16:17:37.211Z,8.67
2018-07-26T16:20:07.061Z,11.13
2018-07-26T16:22:35.485Z,7.43
2018-07-26T16:25:04.710Z,6.80
2018-07-26T16:27:33.628Z,6.97
2018-07-26T16:30:02.053Z,6.85
2018-07-26T16:32:30.475Z,6.93
2018-07-26T16:34:58.849Z,6.47
2018-07-26T16:37:26.916Z,9.73
2018-07-26T16:39:55.298Z,6.70
2018-07-26T16:42:23.706Z,7.90
2018-07-26T16:44:52.447Z,7.83
2018-07-26T16:47:20.845Z,8.77
2018-07-26T16:49:49.197Z,6.93
2018-07-26T16:52:17.557Z,7.70
2018-07-26T16:54:46.239Z,10.47
2018-07-26T16:57:14.754Z,12.50
2018-07-26T16:59:43.135Z,13.37
2018-07-26T17:02:11.536Z,23.67
2018-07-26T17:04:39.890Z,21.53
2018-07-26T17:07:08.565Z,21.33
2018-07-26T17:09:37.243Z,22.73
2018-07-26T17:12:05.638Z,10.53
2018-07-26T17:14:33.960Z,19.47
2018-07-26T17:17:02.344Z,16.47
2018-07-26T17:19:30.743Z,12.70
2018-07-26T17:21:59.114Z,15.03
2018-07-26T17:24:27.781Z,15.00
2018-07-26T17:26:56.416Z,8.07
2018-07-26T17:29:24.780Z,7.37
2018-07-26T17:31:53.248Z,9.67
2018-07-26T17:34:21.881Z,7.47
2018-07-26T17:36:50.337Z,6.83
2018-07-26T17:39:18.987Z,12.33
2018-07-26T17:41:47.403Z,8.10
2018-07-26T17:44:16.100Z,9.10
2018-07-26T17:46:44.503Z,9.83
2018-07-26T17:49:12.868Z,12.10
2018-07-26T17:51:41.197Z,10.50
2018-07-26T17:54:09.596Z,10.40
2018-07-26T17:56:38.032Z,9.30
2018-07-26T17:59:06.620Z,9.17
2018-07-26T18:01:34.977Z,13.10
2018-07-26T18:04:03.366Z,9.80
2018-07-26T18:06:31.770Z,9.53
2018-07-26T18:09:00.193Z,11.37
2018-07-26T18:11:28.602Z,9.60
2018-07-26T18:13:57.039Z,8.87
2018-07-26T18:16:25.400Z,8.63
2018-07-26T18:18:53.748Z,8.10
2018-07-26T18:21:22.113Z,7.43
2018-07-26T18:23:50.492Z,8.90
2018-07-26T18:26:18.998Z,9.37
2018-07-26T18:28:47.331Z,10.50
2018-07-26T18:31:15.385Z,8.90
2018-07-26T18:33:43.805Z,12.10
2018-07-26T18:36:12.174Z,7.60
2018-07-26T18:38:40.571Z,8.20
2018-07-26T18:41:09.009Z,6.40
2018-07-26T18:43:37.413Z,7.57
2018-07-26T18:46:05.885Z,9.03
2018-07-26T18:48:34.248Z,7.80
2018-07-26T18:51:02.617Z,7.43
2018-07-26T18:53:31.052Z,7.63
2018-07-26T18:55:59.209Z,7.60
2018-07-26T18:58:27.496Z,8.90
2018-07-26T19:00:56.205Z,9.07
2018-07-26T19:03:24.913Z,10.97
2018-07-26T19:05:53.317Z,9.57
2018-07-26T19:08:21.753Z,8.67
2018-07-26T19:10:50.137Z,8.67
2018-07-26T19:13:18.526Z,9.30
2018-07-26T19:15:46.572Z,9.33
2018-07-26T19:18:14.941Z,10.43
2018-07-26T19:20:44.017Z,11.40
2018-07-26T19:23:12.473Z,9.77
2018-07-26T19:25:40.947Z,10.63
2018-07-26T19:28:09.301Z,10.47
2018-07-26T19:30:37.981Z,10.30
2018-07-26T19:33:06.530Z,11.57
2018-07-26T19:35:34.961Z,10.83
2018-07-26T19:38:03.326Z,10.63
2018-07-26T19:40:31.764Z,11.13
2018-07-26T19:43:00.264Z,11.23
2018-07-26T19:45:28.653Z,10.90
2018-07-26T19:47:57.036Z,10.73
2018-07-26T19:50:25.366Z,10.90
2018-07-26T19:52:53.757Z,11.30
2018-07-26T19:55:22.082Z,11.67
2018-07-26T19:57:50.443Z,12.93
2018-07-26T20:00:18.837Z,11.50
2018-07-26T20:02:47.243Z,12.60
2018-07-26T20:05:15.589Z,12.17
2018-07-26T20:07:44.073Z,11.90
2018-07-26T20:10:13.086Z,12.70
2018-07-26T20:12:41.869Z,11.80
2018-07-26T20:15:10.372Z,13.00
2018-07-26T20:17:38.711Z,13.07
2018-07-26T20:20:08.899Z,15.87
2018-07-26T20:22:37.380Z,13.63
2018-07-26T20:25:05.884Z,14.27
2018-07-26T20:27:34.264Z,15.27
2018-07-26T20:30:02.758Z,13.57
2018-07-26T20:32:31.457Z,13.13
2018-07-26T20:34:59.874Z,13.50
2018-07-26T20:37:28.288Z,14.07
2018-07-26T20:39:56.694Z,14.00
2018-07-26T20:42:25.073Z,15.93
2018-07-26T20:44:53.777Z,14.87
2018-07-26T20:47:22.176Z,15.83
2018-07-26T20:49:50.808Z,14.83
2018-07-26T20:52:19.215Z,14.73
2018-07-26T20:54:47.662Z,15.23
2018-07-26T20:57:16.037Z,14.33
2018-07-26T20:59:44.468Z,13.87
2018-07-26T21:02:13.137Z,15.93
2018-07-26T21:04:41.465Z,15.13
2018-07-26T21:07:10.208Z,16.67
2018-07-26T21:09:38.786Z,15.97
2018-07-26T21:12:07.241Z,16.90
2018-07-26T21:14:35.754Z,14.17
2018-07-26T21:17:04.181Z,14.30
2018-07-26T21:19:32.566Z,14.53
2018-07-26T21:22:00.955Z,13.00
2018-07-26T21:24:29.079Z,14.47
2018-07-26T21:26:57.473Z,14.93
2018-07-26T21:29:25.860Z,13.83
2018-07-26T21:31:54.466Z,14.20
2018-07-26T21:34:23.096Z,14.53
2018-07-26T21:36:51.418Z,15.43
2018-07-26T21:39:21.388Z,14.60
2018-07-26T21:41:49.831Z,14.33
2018-07-26T21:44:18.215Z,14.97
2018-07-26T21:46:46.591Z,14.67
2018-07-26T21:49:15.079Z,14.20
2018-07-26T21:51:43.136Z,15.13
2018-07-26T21:54:11.500Z,15.40
2018-07-26T21:56:40.210Z,15.70
2018-07-26T21:59:08.605Z,15.30
2018-07-26T22:01:36.933Z,16.30
2018-07-26T22:04:05.308Z,16.97
2018-07-26T22:06:33.770Z,16.87
2018-07-26T22:09:02.192Z,16.90
2018-07-26T22:11:30.905Z,17.17
2018-07-26T22:13:59.776Z,17.47
2018-07-26T22:16:28.153Z,16.97
2018-07-26T22:18:56.519Z,16.03
2018-07-26T22:21:24.889Z,17.47
2018-07-26T22:23:53.257Z,16.63
2018-07-26T22:26:21.663Z,17.50
2018-07-26T22:28:50.159Z,19.87
2018-07-26T22:31:18.842Z,18.63
2018-07-26T22:33:47.283Z,19.40
2018-07-26T22:36:15.654Z,20.00
2018-07-26T22:38:44.049Z,19.10
2018-07-26T22:41:12.696Z,21.10
2018-07-26T22:43:41.054Z,21.43
2018-07-26T22:46:09.507Z,19.47
2018-07-26T22:48:37.877Z,18.80
2018-07-26T22:51:06.309Z,19.87
2018-07-26T22:53:34.727Z,21.10
2018-07-26T22:56:03.182Z,20.30
2018-07-26T22:58:31.798Z,19.00
2018-07-26T23:01:00.131Z,20.33
2018-07-26T23:03:28.781Z,20.43
2018-07-26T23:05:57.524Z,21.33
2018-07-26T23:08:25.860Z,22.43
2018-07-26T23:10:54.223Z,21.53
2018-07-26T23:13:22.976Z,22.83
2018-07-26T23:15:51.562Z,21.03
2018-07-26T23:18:20.456Z,23.13
2018-07-26T23:20:48.861Z,23.23
2018-07-26T23:23:17.293Z,22.17
2018-07-26T23:25:45.672Z,22.60
2018-07-26T23:28:15.280Z,23.73
2018-07-26T23:30:43.672Z,22.73
2018-07-26T23:33:12.054Z,24.07
2018-07-26T23:35:40.803Z,24.73
2018-07-26T23:38:09.159Z,24.53
2018-07-26T23:40:37.579Z,23.47
2018-07-26T23:43:05.995Z,22.83
2018-07-26T23:45:34.700Z,19.90
2018-07-26T23:48:03.185Z,20.10
2018-07-26T23:50:31.556Z,19.20
2018-07-26T23:52:59.934Z,18.50
2018-07-26T23:55:28.256Z,19.57
2018-07-26T23:57:56.665Z,17.80
